Terminal Aerodrome Forecast
Issued by NWS

Home | Current Version | Previous Version | Text Only | Print | Product List | Glossary Off
Versions: 1 2 3 4 5 6 7 8 9 10 11 12 13 14

000
FTUS43 KTOP 070520
TAFFOE
TAF
KFOE 070520Z 0706/0806 33004KT P6SM OVC150
     FM071400 36009KT P6SM OVC040
      TEMPO 0716/0720 6SM -SN OVC025
     FM072300 32009KT P6SM BKN080=

USA.gov is the U.S. government's official web portal to all federal, state and local government web resources and services.